Time;durP1;ratioP1;P1;durP2;ratioP2;P2;SDS_P1;SDS_P2;PMS_P1;PMS_P2;Temp;Humidity;BMP_temperature;BMP_pressure;BME280_temperature;BME280_humidity;BME280_pressure;Samples;Min_cycle;Max_cycle;Signal;HPM_P1;HPM_P2
2021/03/09 00:02:15;;;;;;;80.75;23.92;;;3.90;99.90;;;;;;6237949;23;20434;-79
2021/03/09 00:04:41;;;;;;;85.50;25.02;;;3.70;99.90;;;;;;6237809;23;20040;-76
2021/03/09 00:07:06;;;;;;;83.10;25.85;;;3.70;99.90;;;;;;6238317;23;20436;-77
2021/03/09 00:09:32;;;;;;;82.53;25.63;;;3.80;99.90;;;;;;6238553;23;20016;-79
2021/03/09 00:11:58;;;;;;;86.55;26.17;;;3.70;99.90;;;;;;6239270;23;20052;-77
2021/03/09 00:14:24;;;;;;;91.95;26.35;;;3.70;99.90;;;;;;6239142;23;20004;-78
2021/03/09 00:16:49;;;;;;;72.70;25.00;;;3.80;99.90;;;;;;6239376;23;20313;-79
2021/03/09 00:19:15;;;;;;;90.57;25.60;;;3.80;99.90;;;;;;6211915;23;20346;-78
2021/03/09 00:21:40;;;;;;;77.70;23.70;;;3.60;99.90;;;;;;6238608;23;20019;-78
2021/03/09 00:24:06;;;;;;;77.88;23.05;;;3.60;99.90;;;;;;6211623;23;20034;-78
2021/03/09 00:26:32;;;;;;;84.00;25.75;;;4.00;99.90;;;;;;6239277;23;20007;-78
2021/03/09 00:28:58;;;;;;;88.82;25.38;;;4.00;99.90;;;;;;6238387;23;20061;-77
2021/03/09 00:31:23;;;;;;;90.75;26.70;;;3.90;99.90;;;;;;6238250;23;20004;-76
2021/03/09 00:33:49;;;;;;;82.72;24.38;;;3.80;99.90;;;;;;6239167;23;20039;-78
2021/03/09 00:36:14;;;;;;;78.35;24.02;;;3.60;99.90;;;;;;6208853;23;20087;-79
2021/03/09 00:38:40;;;;;;;80.85;24.38;;;3.70;99.90;;;;;;6238319;23;20012;-79
2021/03/09 00:41:06;;;;;;;85.63;26.77;;;3.60;99.90;;;;;;6237137;22;20004;-80
2021/03/09 00:43:31;;;;;;;78.80;23.20;;;3.60;99.90;;;;;;6238739;23;20042;-77
2021/03/09 00:45:57;;;;;;;78.93;23.75;;;3.70;99.90;;;;;;6239016;23;20038;-78
2021/03/09 00:48:24;;;;;;;79.80;24.92;;;3.70;99.90;;;;;;6238056;23;20531;-81
2021/03/09 00:50:49;;;;;;;83.30;24.17;;;3.70;99.90;;;;;;6238245;23;20008;-79
2021/03/09 00:53:15;;;;;;;81.72;24.33;;;3.70;99.90;;;;;;6238228;23;20023;-78
2021/03/09 00:55:41;;;;;;;75.70;23.75;;;3.60;99.90;;;;;;6238763;23;20048;-77
2021/03/09 00:58:07;;;;;;;81.43;24.13;;;3.70;99.90;;;;;;6236839;23;20000;-77
2021/03/09 01:00:32;;;;;;;77.43;23.90;;;3.60;99.90;;;;;;6240055;23;20179;-76
2021/03/09 01:02:58;;;;;;;81.18;24.73;;;3.50;99.90;;;;;;6240404;23;20007;-82
2021/03/09 01:05:24;;;;;;;80.43;23.70;;;3.50;99.90;;;;;;6239652;23;20104;-83
2021/03/09 01:07:50;;;;;;;85.32;23.38;;;3.80;99.90;;;;;;6214578;23;20383;-83
2021/03/09 01:10:19;;;;;;;78.65;24.77;;;3.80;99.90;;;;;;6240876;23;20391;-84
2021/03/09 01:12:45;;;;;;;83.13;24.42;;;4.00;99.90;;;;;;6241806;23;20005;-83
2021/03/09 01:15:11;;;;;;;84.35;24.25;;;4.00;99.90;;;;;;6242858;23;20004;-81
2021/03/09 01:17:37;;;;;;;80.43;24.35;;;4.10;99.90;;;;;;6243545;23;20416;-84
2021/03/09 01:20:05;;;;;;;75.10;22.80;;;4.10;99.90;;;;;;6241986;23;20329;-78
2021/03/09 01:22:31;;;;;;;74.80;23.75;;;4.10;99.90;;;;;;6243963;23;20171;-81
2021/03/09 01:24:56;;;;;;;69.63;21.38;;;4.00;99.90;;;;;;6243748;23;20000;-79
2021/03/09 01:27:22;;;;;;;84.57;23.58;;;4.10;99.90;;;;;;6241905;23;20028;-81
2021/03/09 01:29:48;;;;;;;77.35;23.10;;;4.10;99.90;;;;;;6243074;23;20004;-77
2021/03/09 01:32:13;;;;;;;81.82;24.52;;;3.90;99.90;;;;;;6241373;23;20023;-81
2021/03/09 01:34:39;;;;;;;81.13;24.13;;;3.90;99.90;;;;;;6243232;23;20011;-82
2021/03/09 01:37:05;;;;;;;80.03;25.80;;;4.10;99.90;;;;;;6241546;23;20004;-81
2021/03/09 01:39:31;;;;;;;87.80;25.85;;;3.90;99.90;;;;;;6217068;23;20046;-81
2021/03/09 01:41:57;;;;;;;83.35;25.50;;;3.80;99.90;;;;;;6243956;22;20400;-81
2021/03/09 01:44:24;;;;;;;82.75;25.02;;;3.70;99.90;;;;;;6242601;23;20015;-81
2021/03/09 01:46:50;;;;;;;85.28;24.42;;;3.80;99.90;;;;;;6215272;23;20004;-82
2021/03/09 01:49:17;;;;;;;75.82;22.35;;;3.90;99.90;;;;;;6241650;23;20058;-82
2021/03/09 01:51:44;;;;;;;82.30;23.92;;;4.00;99.90;;;;;;6243620;23;20559;-82
2021/03/09 01:54:12;;;;;;;88.50;25.85;;;3.90;99.90;;;;;;6242691;23;20601;-85
2021/03/09 01:56:38;;;;;;;86.10;27.08;;;3.90;99.90;;;;;;6243870;23;20031;-81
2021/03/09 01:59:06;;;;;;;85.72;25.10;;;3.90;99.90;;;;;;6243133;23;20001;-83
2021/03/09 02:01:32;;;;;;;85.55;26.00;;;4.00;99.90;;;;;;6243186;23;20011;-82
2021/03/09 02:03:57;;;;;;;90.32;26.13;;;4.00;99.90;;;;;;6242595;23;20012;-81
2021/03/09 02:06:23;;;;;;;91.50;25.25;;;3.80;99.90;;;;;;6242094;23;20146;-81
2021/03/09 02:08:49;;;;;;;91.07;26.90;;;3.90;99.90;;;;;;6243224;23;20070;-82
2021/03/09 02:11:37;;;;;;;93.28;25.38;;;4.00;99.90;;;;;;6241894;23;20031;-82
2021/03/09 02:14:37;;;;;;;90.60;25.85;;;4.00;99.90;;;;;;6243285;23;20092;-83
2021/03/09 02:17:14;;;;;;;81.38;26.13;;;4.00;99.90;;;;;;6243489;23;19997;-81
2021/03/09 02:20:02;;;;;;;89.88;27.95;;;4.10;99.90;;;;;;6242257;23;20310;-82
2021/03/09 02:22:42;;;;;;;103.28;28.25;;;4.10;99.90;;;;;;6242573;23;19996;-81
2021/03/09 02:25:45;;;;;;;105.60;29.15;;;4.00;99.90;;;;;;6242192;23;20042;-81
2021/03/09 02:28:27;;;;;;;90.35;26.60;;;3.90;99.90;;;;;;6242000;23;20444;-79
2021/03/09 02:30:55;;;;;;;103.32;30.25;;;3.80;99.90;;;;;;6241898;23;20188;-80
2021/03/09 02:33:44;;;;;;;101.43;29.58;;;3.70;99.90;;;;;;6241713;23;20721;-80
2021/03/09 02:36:14;;;;;;;105.03;30.25;;;3.70;99.90;;;;;;6241883;23;19996;-80
2021/03/09 02:38:52;;;;;;;110.88;29.95;;;3.80;99.90;;;;;;6242139;23;20028;-81
2021/03/09 02:41:20;;;;;;;71.03;22.13;;;3.90;99.90;;;;;;6242571;22;20026;-82
2021/03/09 02:43:49;;;;;;;115.80;31.00;;;3.80;99.90;;;;;;6242767;23;20409;-81
2021/03/09 02:46:16;;;;;;;113.15;33.10;;;3.80;99.90;;;;;;6242543;23;19996;-81
2021/03/09 02:48:44;;;;;;;113.38;34.20;;;3.90;99.90;;;;;;6243083;23;20012;-85
2021/03/09 02:51:10;;;;;;;95.68;29.95;;;3.90;99.90;;;;;;6241499;23;20368;-81
2021/03/09 02:53:41;;;;;;;90.68;27.25;;;4.00;99.90;;;;;;6242666;23;20012;-80
2021/03/09 02:56:09;;;;;;;109.18;31.10;;;4.00;99.90;;;;;;6242630;23;20070;-80
2021/03/09 02:58:36;;;;;;;107.10;33.35;;;3.90;99.90;;;;;;6242550;23;20488;-81
2021/03/09 03:01:02;;;;;;;103.10;32.78;;;3.80;99.90;;;;;;6242246;23;20425;-81
2021/03/09 03:03:32;;;;;;;110.72;33.05;;;3.80;99.90;;;;;;6242370;23;20004;-84
2021/03/09 03:06:00;;;;;;;119.57;34.90;;;3.80;99.90;;;;;;6242755;23;20135;-81
2021/03/09 03:08:29;;;;;;;113.80;32.00;;;3.70;99.90;;;;;;6241961;23;20001;-81
2021/03/09 03:10:56;;;;;;;105.25;31.50;;;3.80;99.90;;;;;;6216095;23;20022;-81
2021/03/09 03:13:23;;;;;;;100.80;30.02;;;3.80;99.90;;;;;;6241880;23;20011;-81
2021/03/09 03:15:51;;;;;;;110.65;30.42;;;3.80;99.90;;;;;;6242789;23;20071;-82
2021/03/09 03:18:18;;;;;;;119.00;35.13;;;3.80;99.90;;;;;;6241035;23;20340;-81
2021/03/09 03:20:46;;;;;;;115.68;33.47;;;3.80;99.90;;;;;;6242712;23;20001;-79
2021/03/09 03:23:14;;;;;;;121.65;34.40;;;3.70;99.90;;;;;;6240631;23;20035;-79
2021/03/09 03:25:40;;;;;;;125.60;35.13;;;3.70;99.90;;;;;;6242705;23;20000;-80
2021/03/09 03:28:08;;;;;;;112.90;34.33;;;3.80;99.90;;;;;;6242432;23;20083;-80
2021/03/09 03:30:34;;;;;;;111.25;33.28;;;3.90;99.90;;;;;;6242030;23;20034;-81
2021/03/09 03:33:00;;;;;;;123.18;36.78;;;3.90;99.90;;;;;;6241102;23;20012;-84
2021/03/09 03:35:27;;;;;;;124.40;35.47;;;3.80;99.90;;;;;;6240678;23;20032;-82
2021/03/09 03:37:52;;;;;;;127.13;37.80;;;3.80;99.90;;;;;;6242460;23;20371;-85
2021/03/09 03:40:20;;;;;;;106.35;33.95;;;3.90;99.90;;;;;;6241219;23;19997;-85
2021/03/09 03:42:48;;;;;;;109.50;34.88;;;3.90;99.90;;;;;;6215706;23;20005;-83
2021/03/09 03:45:17;;;;;;;103.43;32.78;;;3.70;99.90;;;;;;6241020;23;20000;-82
2021/03/09 03:47:43;;;;;;;110.30;33.45;;;3.70;99.90;;;;;;6242303;23;20004;-83
2021/03/09 03:50:11;;;;;;;120.93;35.80;;;3.70;99.90;;;;;;6241036;23;20003;-81
2021/03/09 03:53:30;;;;;;;117.22;34.53;;;3.70;99.90;;;;;;6241510;23;20087;-81
2021/03/09 03:56:20;;;;;;;108.10;32.58;;;3.80;99.90;;;;;;6119837;23;20482;-85
2021/03/09 03:58:57;;;;;;;102.85;31.58;;;3.80;99.90;;;;;;6119877;23;20002;-85
2021/03/09 04:01:25;;;;;;;117.05;32.60;;;3.90;99.90;;;;;;6204692;23;20016;-85
2021/03/09 04:03:53;;;;;;;112.03;33.85;;;3.90;99.90;;;;;;6242170;23;20063;-85
2021/03/09 04:06:25;;;;;;;116.50;35.50;;;3.80;99.90;;;;;;6241304;23;20073;-84
2021/03/09 04:08:52;;;;;;;115.57;36.45;;;3.80;99.90;;;;;;6241667;23;20341;-84
2021/03/09 04:11:18;;;;;;;116.47;35.38;;;3.90;99.90;;;;;;6240648;23;20015;-83
2021/03/09 04:13:44;;;;;;;87.68;25.88;;;3.70;99.90;;;;;;6242417;23;20016;-83
2021/03/09 04:16:15;;;;;;;96.75;31.17;;;3.80;99.90;;;;;;6241336;23;20019;-86
2021/03/09 04:18:42;;;;;;;125.53;35.83;;;3.90;99.90;;;;;;6242485;23;20011;-85
2021/03/09 04:21:09;;;;;;;108.82;33.63;;;3.80;99.90;;;;;;6242000;23;20452;-84
2021/03/09 04:23:36;;;;;;;121.72;36.63;;;3.60;99.90;;;;;;6241343;23;20006;-84
2021/03/09 04:26:02;;;;;;;111.00;34.38;;;3.50;99.90;;;;;;6241728;23;20008;-85
2021/03/09 04:28:28;;;;;;;112.68;33.75;;;3.50;99.90;;;;;;6240979;23;20004;-85
2021/03/09 04:30:55;;;;;;;115.38;35.40;;;3.60;99.90;;;;;;6242118;23;20083;-84
2021/03/09 04:33:21;;;;;;;125.45;36.55;;;3.60;99.90;;;;;;6241981;23;20062;-84
2021/03/09 04:35:47;;;;;;;118.22;34.00;;;3.60;99.90;;;;;;6242168;23;20000;-84
2021/03/09 04:38:14;;;;;;;121.25;35.58;;;3.60;99.90;;;;;;6241480;23;20316;-83
2021/03/09 04:40:40;;;;;;;122.80;35.58;;;3.70;99.90;;;;;;6242092;23;20075;-84
2021/03/09 04:43:06;;;;;;;87.47;26.58;;;3.60;99.90;;;;;;6242568;22;20004;-85
2021/03/09 04:45:32;;;;;;;137.05;38.00;;;3.70;99.90;;;;;;6240861;23;20350;-87
2021/03/09 04:48:02;;;;;;;116.07;37.83;;;3.60;99.90;;;;;;6242252;23;20000;-84
2021/03/09 04:50:28;;;;;;;;;;;3.50;99.90;;;;;;6240800;23;19997;-85
2021/03/09 04:52:55;;;;;;;87.10;30.42;;;3.50;99.90;;;;;;6241513;23;19907;-85
2021/03/09 04:55:24;;;;;;;107.40;31.67;;;3.60;99.90;;;;;;6241290;23;20075;-86
2021/03/09 04:57:50;;;;;;;122.28;36.80;;;3.70;99.90;;;;;;6242391;23;20447;-86
2021/03/09 05:00:24;;;;;;;111.45;35.35;;;3.50;99.90;;;;;;6240175;23;19997;-86
2021/03/09 05:02:51;;;;;;;111.97;35.55;;;3.50;99.90;;;;;;6242872;23;20004;-84
2021/03/09 05:05:19;;;;;;;79.13;29.02;;;3.50;99.90;;;;;;6241177;23;20012;-84
2021/03/09 05:07:45;;;;;;;108.25;34.50;;;3.40;99.90;;;;;;6241884;23;20032;-83
2021/03/09 05:10:13;;;;;;;116.30;36.20;;;3.40;99.90;;;;;;6241360;23;20022;-84
2021/03/09 05:12:40;;;;;;;115.20;35.45;;;3.50;99.90;;;;;;6214297;23;20012;-88
2021/03/09 05:15:07;;;;;;;120.65;36.50;;;3.50;99.90;;;;;;6239093;23;20487;-87
2021/03/09 05:17:32;;;;;;;102.72;32.67;;;3.60;99.90;;;;;;6213247;23;20310;-88
2021/03/09 05:19:58;;;;;;;123.25;35.92;;;3.60;99.90;;;;;;6241041;23;20000;-87
2021/03/09 05:22:24;;;;;;;111.82;36.33;;;3.50;99.90;;;;;;6239618;23;20191;-86
2021/03/09 05:24:50;;;;;;;114.05;34.55;;;3.50;99.90;;;;;;6241041;23;20023;-89
2021/03/09 05:27:15;;;;;;;108.05;34.50;;;3.50;99.90;;;;;;6241550;23;20000;-89
2021/03/09 05:29:41;;;;;;;114.70;36.85;;;3.60;99.90;;;;;;6241610;23;20001;-89
2021/03/09 05:32:07;;;;;;;107.60;33.40;;;3.40;99.90;;;;;;6241421;23;20073;-87
2021/03/09 05:34:33;;;;;;;109.03;34.92;;;3.40;99.90;;;;;;6240894;23;20027;-89
2021/03/09 05:36:58;;;;;;;111.85;36.63;;;3.60;99.90;;;;;;6240562;23;20004;-90
2021/03/09 05:39:24;;;;;;;97.45;32.90;;;3.50;99.90;;;;;;6239655;23;20010;-89
2021/03/09 05:41:50;;;;;;;107.60;35.60;;;3.40;99.90;;;;;;6214260;23;20088;-90
2021/03/09 05:44:15;;;;;;;85.03;33.22;;;3.50;99.90;;;;;;6240314;23;20032;-88
2021/03/09 05:46:41;;;;;;;104.63;33.78;;;3.60;99.90;;;;;;6241203;23;20000;-89
2021/03/09 05:49:08;;;;;;;107.80;37.00;;;3.60;99.90;;;;;;6241754;23;20001;-89
2021/03/09 05:51:34;;;;;;;94.55;32.92;;;3.60;99.90;;;;;;6240643;23;20008;-89
2021/03/09 05:54:00;;;;;;;111.45;37.67;;;3.70;99.90;;;;;;6241328;23;20000;-87
2021/03/09 05:56:26;;;;;;;114.63;36.88;;;3.50;99.90;;;;;;6240039;23;20055;-87
2021/03/09 05:58:52;;;;;;;126.63;39.15;;;3.50;99.90;;;;;;6241263;23;20060;-87
2021/03/09 06:01:19;;;;;;;108.95;36.45;;;3.50;99.90;;;;;;6241183;23;20083;-87
2021/03/09 06:03:44;;;;;;;91.65;29.90;;;3.60;99.90;;;;;;6243593;23;20004;-90
2021/03/09 06:06:12;;;;;;;110.68;38.00;;;3.60;99.90;;;;;;6242628;23;20058;-90
2021/03/09 06:08:38;;;;;;;105.78;38.70;;;3.60;99.90;;;;;;6242404;23;20030;-89
2021/03/09 06:11:16;;;;;;;94.65;32.50;;;3.40;99.90;;;;;;6240312;23;20009;-86
2021/03/09 06:13:42;;;;;;;116.38;38.55;;;3.40;99.90;;;;;;6240691;23;20183;-89
2021/03/09 06:16:08;;;;;;;96.97;33.38;;;3.50;99.90;;;;;;6240492;23;20000;-88
2021/03/09 06:18:34;;;;;;;104.80;37.22;;;3.60;99.90;;;;;;6240755;23;20083;-92
2021/03/09 06:21:13;;;;;;;60.47;24.33;;;3.70;99.90;;;;;;6243453;23;20046;-91
2021/03/09 06:23:40;;;;;;;92.28;32.78;;;3.60;99.90;;;;;;6243681;23;20101;-93
2021/03/09 06:26:32;;;;;;;92.82;36.20;;;3.50;99.90;;;;;;6243168;23;20000;-92
2021/03/09 06:29:10;;;;;;;104.75;34.35;;;3.60;99.90;;;;;;6243168;23;20448;-87
2021/03/09 06:31:37;;;;;;;78.78;28.50;;;3.60;99.90;;;;;;6240831;23;20242;-87
2021/03/09 06:34:27;;;;;;;90.88;34.08;;;3.60;99.90;;;;;;6241146;23;20008;-85
2021/03/09 06:37:11;;;;;;;;;;;3.60;99.90;;;;;;6242344;23;20011;-88
2021/03/09 06:39:44;;;;;;;87.32;29.27;;;3.70;99.90;;;;;;6241361;23;19998;-86
2021/03/09 06:42:10;;;;;;;109.18;36.45;;;3.70;99.90;;;;;;6242640;22;20012;-86
2021/03/09 06:44:37;;;;;;;110.32;36.47;;;3.70;99.90;;;;;;6241757;23;20008;-88
2021/03/09 06:47:03;;;;;;;96.75;30.10;;;3.70;99.90;;;;;;6242613;23;20107;-92
2021/03/09 06:49:29;;;;;;;102.68;36.42;;;3.70;99.90;;;;;;6241917;23;20027;-91
2021/03/09 06:52:10;;;;;;;78.90;27.70;;;3.70;99.90;;;;;;6241852;23;20137;-92
2021/03/09 06:54:44;;;;;;;104.95;36.72;;;3.60;99.90;;;;;;6242919;23;20142;-92
2021/03/09 06:57:10;;;;;;;89.43;31.48;;;3.60;99.90;;;;;;6240838;23;20070;-90
2021/03/09 06:59:36;;;;;;;84.70;31.30;;;3.50;99.90;;;;;;6238677;23;20491;-91
2021/03/09 07:02:07;;;;;;;68.15;22.77;;;3.60;99.90;;;;;;6240723;23;20012;-92
2021/03/09 07:04:44;;;;;;;85.95;32.47;;;3.70;99.90;;;;;;6240126;23;20005;-89
2021/03/09 07:07:12;;;;;;;65.93;21.88;;;3.60;99.90;;;;;;6241517;23;20000;-80
2021/03/09 07:09:39;;;;;;;99.78;33.70;;;3.60;99.90;;;;;;6241031;23;20402;-79
2021/03/09 07:12:09;;;;;;;64.55;22.73;;;3.70;99.90;;;;;;6241744;23;20016;-87
2021/03/09 07:14:40;;;;;;;44.47;15.60;;;3.80;99.90;;;;;;6238202;23;20035;-87
2021/03/09 07:17:07;;;;;;;66.70;25.05;;;3.80;99.90;;;;;;6240363;23;20000;-87
2021/03/09 07:19:40;;;;;;;71.55;26.65;;;3.70;99.90;;;;;;6239946;23;20012;-87
2021/03/09 07:22:06;;;;;;;64.68;23.15;;;3.60;99.90;;;;;;6241479;23;20004;-87
2021/03/09 07:24:32;;;;;;;70.85;25.95;;;3.70;99.90;;;;;;6235835;23;20078;-87
2021/03/09 07:27:14;;;;;;;70.95;26.25;;;3.70;99.90;;;;;;6239643;23;20490;-84
2021/03/09 07:29:47;;;;;;;76.25;27.67;;;3.80;99.90;;;;;;6241283;23;20008;-87
2021/03/09 07:32:16;;;;;;;70.95;25.85;;;3.90;99.90;;;;;;6241600;23;20039;-83
2021/03/09 07:34:42;;;;;;;80.60;29.00;;;3.90;99.90;;;;;;6240538;23;20069;-84
2021/03/09 07:37:07;;;;;;;65.97;24.70;;;3.90;99.90;;;;;;6241576;23;20000;-82
2021/03/09 07:39:34;;;;;;;70.00;26.20;;;4.00;99.90;;;;;;6241544;23;20015;-90
2021/03/09 07:42:00;;;;;;;66.68;24.40;;;3.80;99.90;;;;;;6240893;22;20007;-89
2021/03/09 07:44:26;;;;;;;69.57;26.80;;;3.70;99.90;;;;;;6240663;23;20369;-89
2021/03/09 07:46:53;;;;;;;52.85;20.33;;;3.80;99.90;;;;;;6241753;23;20008;-87
2021/03/09 07:49:19;;;;;;;64.55;24.92;;;3.70;99.90;;;;;;6241287;23;20087;-87
2021/03/09 07:52:22;;;;;;;70.40;27.55;;;3.80;99.90;;;;;;6240958;23;20469;-87
2021/03/09 07:55:03;;;;;;;69.47;23.83;;;3.80;99.90;;;;;;6241514;23;20054;-90
2021/03/09 07:57:33;;;;;;;74.60;26.55;;;3.80;99.90;;;;;;6237711;23;20035;-88
2021/03/09 08:00:01;;;;;;;69.43;25.00;;;3.90;99.90;;;;;;6240088;23;20004;-90
2021/03/09 08:03:00;;;;;;;66.80;26.70;;;3.90;99.90;;;;;;6239081;23;20091;-90
2021/03/09 08:05:27;;;;;;;79.38;35.15;;;3.80;99.90;;;;;;6171756;23;20012;-87
2021/03/09 08:08:04;;;;;;;68.60;25.75;;;3.80;99.90;;;;;;6239497;23;20499;-88
2021/03/09 08:10:29;;;;;;;66.72;25.65;;;3.90;99.90;;;;;;6238339;23;20015;-89
2021/03/09 08:13:07;;;;;;;64.97;22.75;;;3.80;99.90;;;;;;6239188;23;20012;-88
2021/03/09 08:15:34;;;;;;;65.32;25.02;;;3.80;99.90;;;;;;6238313;23;20007;-89
2021/03/09 08:18:24;;;;;;;61.22;23.23;;;3.80;99.90;;;;;;6240550;23;20714;-88
2021/03/09 08:20:54;;;;;;;63.33;22.75;;;3.80;99.90;;;;;;6239945;23;20004;-90
2021/03/09 08:23:35;;;;;;;;;;;3.90;99.90;;;;;;6239392;23;20008;-89
2021/03/09 08:26:38;;;;;;;60.75;24.60;;;3.80;99.90;;;;;;6240158;23;20339;-89
2021/03/09 08:29:33;;;;;;;62.17;24.23;;;3.90;99.90;;;;;;6239433;23;20011;-87
2021/03/09 08:32:23;;;;;;;56.55;25.10;;;3.90;99.90;;;;;;6239327;23;20036;-88
2021/03/09 08:35:12;;;;;;;55.90;22.20;;;4.00;99.90;;;;;;6239927;23;20083;-89
2021/03/09 08:37:45;;;;;;;57.78;21.33;;;4.00;99.90;;;;;;6238267;23;20106;-87
2021/03/09 08:40:14;;;;;;;53.72;20.77;;;4.10;99.90;;;;;;6239876;23;20036;-87
2021/03/09 08:42:58;;;;;;;59.72;23.55;;;4.00;99.90;;;;;;6239070;22;20142;-88
2021/03/09 08:45:54;;;;;;;57.35;22.05;;;3.90;99.90;;;;;;6240968;23;20334;-87
2021/03/09 08:48:47;;;;;;;42.33;17.02;;;4.00;99.90;;;;;;6241720;23;19996;-86
2021/03/09 08:51:41;;;;;;;52.75;22.02;;;3.90;99.90;;;;;;6241443;23;20007;-89
2021/03/09 08:54:24;;;;;;;58.25;28.73;;;3.70;99.90;;;;;;6241535;23;20433;-88
2021/03/09 08:56:50;;;;;;;55.50;21.88;;;3.80;99.90;;;;;;6241271;23;20062;-86
2021/03/09 08:59:30;;;;;;;58.28;26.13;;;3.60;99.90;;;;;;6241743;23;20433;-88
2021/03/09 09:02:07;;;;;;;55.13;20.15;;;3.70;99.90;;;;;;6241497;23;20008;-86
2021/03/09 09:04:33;;;;;;;50.38;20.25;;;3.90;99.90;;;;;;6241312;23;20012;-87
2021/03/09 09:07:00;;;;;;;45.20;17.83;;;3.80;99.90;;;;;;6240608;23;20012;-88
2021/03/09 09:09:36;;;;;;;48.60;19.60;;;3.70;99.90;;;;;;6239232;23;20028;-88
2021/03/09 09:12:20;;;;;;;49.83;21.27;;;3.80;99.90;;;;;;6241350;23;20016;-88
2021/03/09 09:14:58;;;;;;;56.83;25.58;;;3.80;99.90;;;;;;6240662;23;20496;-88
2021/03/09 09:17:26;;;;;;;54.67;19.45;;;3.80;99.90;;;;;;6241608;23;20000;-87
2021/03/09 09:20:19;;;;;;;64.00;29.50;;;3.80;99.90;;;;;;6241280;23;20008;-88
2021/03/09 09:22:46;;;;;;;51.58;20.67;;;3.70;99.90;;;;;;6240501;23;20000;-88
2021/03/09 09:25:13;;;;;;;59.25;21.25;;;3.70;99.90;;;;;;6241413;23;20057;-87
2021/03/09 09:27:54;;;;;;;61.13;24.10;;;3.90;99.90;;;;;;6240991;23;19996;-82
2021/03/09 09:30:22;;;;;;;57.42;20.35;;;4.10;99.90;;;;;;6241224;23;20015;-86
2021/03/09 09:32:53;;;;;;;44.17;17.90;;;4.20;99.90;;;;;;6241515;23;20045;-85
2021/03/09 09:35:21;;;;;;;54.55;24.58;;;4.40;99.90;;;;;;6241836;23;20011;-86
2021/03/09 09:37:49;;;;;;;51.20;19.63;;;4.60;99.90;;;;;;6242751;23;20031;-85
2021/03/09 09:40:18;;;;;;;46.63;23.10;;;4.70;99.90;;;;;;6243314;23;20005;-86
2021/03/09 09:43:10;;;;;;;38.60;13.77;;;4.80;99.90;;;;;;6242474;22;20081;-82
2021/03/09 09:45:40;;;;;;;31.45;14.73;;;4.80;99.90;;;;;;6240857;23;20004;-86
2021/03/09 09:48:08;;;;;;;;;;;4.80;99.90;;;;;;6243082;23;19996;-85
2021/03/09 09:50:35;;;;;;;44.78;16.52;;;4.60;99.90;;;;;;6241856;23;19899;-83
2021/03/09 09:53:02;;;;;;;45.38;16.95;;;4.60;99.90;;;;;;6243005;23;20012;-84
2021/03/09 09:55:31;;;;;;;44.05;21.70;;;4.70;99.90;;;;;;6241626;23;20007;-85
2021/03/09 09:57:59;;;;;;;40.60;16.98;;;4.70;99.90;;;;;;6244561;23;20126;-83
2021/03/09 10:00:30;;;;;;;37.42;13.27;;;4.70;99.90;;;;;;6216188;23;20007;-84
2021/03/09 10:03:12;;;;;;;37.97;15.57;;;4.80;99.90;;;;;;6244172;23;20050;-84
2021/03/09 10:05:39;;;;;;;41.78;16.70;;;4.60;99.90;;;;;;6242451;23;20015;-84
2021/03/09 10:08:06;;;;;;;37.13;14.48;;;4.50;99.90;;;;;;6243020;23;20459;-83
2021/03/09 10:10:32;;;;;;;39.42;17.40;;;4.60;99.90;;;;;;6241955;23;20020;-84
2021/03/09 10:12:58;;;;;;;38.97;16.27;;;4.50;99.90;;;;;;6241750;23;20008;-83
2021/03/09 10:15:42;;;;;;;45.15;21.48;;;4.40;99.90;;;;;;6242954;23;20062;-84
2021/03/09 10:18:09;;;;;;;40.92;15.40;;;4.40;99.90;;;;;;6243481;23;20043;-84
2021/03/09 10:20:35;;;;;;;42.63;19.20;;;4.30;99.90;;;;;;6242735;23;20088;-83
2021/03/09 10:23:02;;;;;;;35.15;15.20;;;4.30;99.90;;;;;;6243206;23;20004;-83
2021/03/09 10:25:28;;;;;;;37.20;14.27;;;4.20;99.90;;;;;;6242436;23;20076;-81
2021/03/09 10:28:02;;;;;;;42.83;17.83;;;4.30;99.90;;;;;;6243206;23;20000;-82
2021/03/09 10:30:37;;;;;;;34.40;13.98;;;4.30;99.90;;;;;;6241484;23;20000;-83
2021/03/09 10:33:09;;;;;;;34.50;14.30;;;4.50;99.90;;;;;;6243108;23;20016;-82
2021/03/09 10:35:35;;;;;;;31.10;13.13;;;4.40;99.90;;;;;;6242164;23;20087;-87
2021/03/09 10:38:01;;;;;;;38.00;16.58;;;4.40;99.90;;;;;;6242484;23;20058;-82
2021/03/09 10:40:34;;;;;;;37.15;17.42;;;4.30;99.90;;;;;;6241683;22;20000;-82
2021/03/09 10:43:01;;;;;;;25.80;11.60;;;4.30;99.90;;;;;;6242444;23;20394;-82
2021/03/09 10:45:32;;;;;;;38.83;13.35;;;4.50;99.90;;;;;;6242704;23;20000;-82
2021/03/09 10:47:59;;;;;;;43.22;16.00;;;4.60;99.90;;;;;;6190184;23;20007;-87
2021/03/09 10:50:29;;;;;;;44.50;17.08;;;4.40;99.90;;;;;;6242148;23;20421;-81
2021/03/09 10:52:56;;;;;;;43.88;18.50;;;4.50;99.90;;;;;;6242642;23;20511;-82
2021/03/09 10:55:23;;;;;;;44.45;17.45;;;4.50;99.90;;;;;;6242603;23;20004;-81
2021/03/09 10:57:49;;;;;;;44.40;17.17;;;4.50;99.90;;;;;;6241211;23;20312;-80
2021/03/09 11:00:18;;;;;;;31.95;14.43;;;4.70;99.90;;;;;;6242414;23;20008;-81
2021/03/09 11:02:45;;;;;;;42.53;17.25;;;4.70;99.90;;;;;;6240687;23;20014;-80
2021/03/09 11:05:11;;;;;;;37.38;14.45;;;4.70;99.90;;;;;;6242661;23;20008;-78
2021/03/09 11:07:37;;;;;;;31.92;12.63;;;4.90;99.90;;;;;;6240093;23;20024;-79
2021/03/09 11:10:10;;;;;;;34.20;13.88;;;4.80;99.90;;;;;;6239193;23;20023;-80
2021/03/09 11:12:36;;;;;;;39.53;17.45;;;4.80;99.90;;;;;;6239973;23;20091;-79
2021/03/09 11:15:02;;;;;;;32.20;14.63;;;4.70;99.90;;;;;;6241504;23;20361;-80
2021/03/09 11:17:28;;;;;;;27.50;12.35;;;4.60;99.90;;;;;;6242746;23;20313;-83
2021/03/09 11:19:54;;;;;;;41.80;16.65;;;4.70;99.90;;;;;;6242458;23;20530;-84
2021/03/09 11:22:20;;;;;;;34.03;15.00;;;4.60;99.90;;;;;;6242027;23;20065;-82
2021/03/09 11:24:46;;;;;;;43.78;16.80;;;4.70;99.90;;;;;;6242318;23;20082;-82
2021/03/09 11:27:12;;;;;;;40.78;16.55;;;4.70;99.90;;;;;;6242410;23;20000;-80
2021/03/09 11:29:38;;;;;;;38.72;16.13;;;4.80;99.90;;;;;;6241966;23;20000;-81
2021/03/09 11:32:05;;;;;;;38.05;16.83;;;4.90;99.90;;;;;;6242541;23;20023;-83
2021/03/09 11:34:31;;;;;;;33.35;15.30;;;5.00;99.90;;;;;;6241676;23;20064;-83
2021/03/09 11:36:57;;;;;;;33.25;13.93;;;4.90;99.90;;;;;;6242534;23;20031;-82
2021/03/09 11:39:22;;;;;;;25.42;12.00;;;5.00;99.90;;;;;;6242207;23;20425;-82
2021/03/09 11:41:49;;;;;;;31.42;11.85;;;5.00;99.90;;;;;;6241732;22;20010;-86
2021/03/09 11:44:15;;;;;;;34.03;13.27;;;4.80;99.90;;;;;;6242567;23;20405;-81
2021/03/09 11:46:41;;;;;;;30.17;11.23;;;4.90;99.90;;;;;;6214602;23;20015;-83
2021/03/09 11:49:07;;;;;;;21.38;9.88;;;5.00;99.90;;;;;;6242720;23;20023;-82
2021/03/09 11:51:33;;;;;;;30.70;12.85;;;5.00;99.90;;;;;;6241738;23;20011;-82
2021/03/09 11:53:58;;;;;;;31.33;13.30;;;5.10;99.90;;;;;;6242040;23;20034;-82
2021/03/09 11:56:24;;;;;;;31.45;14.27;;;5.10;99.90;;;;;;6242195;23;20008;-84
2021/03/09 11:58:50;;;;;;;37.75;15.35;;;5.00;99.90;;;;;;6241309;23;20079;-79
2021/03/09 12:01:17;;;;;;;35.88;14.07;;;5.10;99.90;;;;;;6240498;23;20294;-80
2021/03/09 12:03:43;;;;;;;27.33;11.73;;;5.20;99.90;;;;;;6240005;23;20722;-78
2021/03/09 12:06:08;;;;;;;40.17;18.83;;;5.10;99.90;;;;;;6241576;23;20000;-82
2021/03/09 12:08:34;;;;;;;34.97;15.43;;;5.10;99.90;;;;;;6240662;23;20000;-79
2021/03/09 12:11:00;;;;;;;33.33;13.10;;;5.00;99.90;;;;;;6240597;23;20039;-80
2021/03/09 12:13:25;;;;;;;38.60;14.95;;;5.00;99.90;;;;;;6240984;23;20110;-78
2021/03/09 12:15:51;;;;;;;31.88;12.90;;;5.10;99.90;;;;;;6239565;23;20404;-80
2021/03/09 12:18:17;;;;;;;22.17;8.68;;;5.00;99.90;;;;;;6241715;23;20004;-81
2021/03/09 12:20:43;;;;;;;35.80;14.63;;;5.10;99.90;;;;;;6240536;23;20007;-78
2021/03/09 12:23:09;;;;;;;35.53;14.85;;;5.00;99.90;;;;;;6241415;23;20015;-80
2021/03/09 12:25:35;;;;;;;34.67;12.85;;;5.20;99.90;;;;;;6240987;23;20046;-80
2021/03/09 12:28:00;;;;;;;22.48;8.77;;;5.30;99.90;;;;;;6241693;23;20007;-81
2021/03/09 12:30:27;;;;;;;36.63;14.82;;;5.30;99.90;;;;;;6241132;23;20010;-81
2021/03/09 12:32:53;;;;;;;31.20;12.85;;;4.90;99.90;;;;;;6239701;23;20091;-80
2021/03/09 12:35:18;;;;;;;35.85;16.30;;;5.10;99.90;;;;;;6241206;23;20028;-78
2021/03/09 12:37:44;;;;;;;32.70;13.40;;;4.90;99.90;;;;;;6239595;23;20000;-79
2021/03/09 12:40:10;;;;;;;31.42;15.05;;;4.90;99.90;;;;;;6241683;23;20090;-79
2021/03/09 12:42:36;;;;;;;34.78;14.00;;;5.00;99.90;;;;;;6240985;22;20004;-80
2021/03/09 12:45:07;;;;;;;37.30;14.80;;;5.00;99.90;;;;;;6242107;23;20043;-80
2021/03/09 12:47:33;;;;;;;38.63;16.02;;;5.00;99.90;;;;;;6239697;23;20004;-81
2021/03/09 12:49:59;;;;;;;44.15;17.23;;;5.00;99.90;;;;;;6240285;23;20026;-78